sensor_id;sensor_type;location;lat;lon;timestamp;pressure;altitude;pressure_sealevel;temperature;humidity
69535;BME280;56754;51.568;5.048;2023-01-28T00:02:07;102857.81;;;12.06;52.42
69535;BME280;56754;51.568;5.048;2023-01-28T00:04:32;102856.22;;;12.00;52.58
69535;BME280;56754;51.568;5.048;2023-01-28T00:06:58;102868.03;;;11.94;52.62
69535;BME280;56754;51.568;5.048;2023-01-28T00:09:23;102871.53;;;11.90;52.65
69535;BME280;56754;51.568;5.048;2023-01-28T00:11:48;102873.34;;;11.84;52.92
69535;BME280;56754;51.568;5.048;2023-01-28T00:14:13;102874.16;;;11.79;53.08
69535;BME280;56754;51.568;5.048;2023-01-28T00:16:39;102874.97;;;11.75;53.36
69535;BME280;56754;51.568;5.048;2023-01-28T00:19:04;102873.06;;;11.70;53.50
69535;BME280;56754;51.568;5.048;2023-01-28T00:21:29;102874.41;;;11.68;53.54
69535;BME280;56754;51.568;5.048;2023-01-28T00:23:55;102872.53;;;11.63;53.81
69535;BME280;56754;51.568;5.048;2023-01-28T00:26:22;102878.44;;;11.60;53.95
69535;BME280;56754;51.568;5.048;2023-01-28T00:28:47;102878.13;;;11.56;54.16
69535;BME280;56754;51.568;5.048;2023-01-28T00:31:18;102882.41;;;11.52;54.31
69535;BME280;56754;51.568;5.048;2023-01-28T00:33:44;102884.53;;;11.50;54.45
69535;BME280;56754;51.568;5.048;2023-01-28T00:36:10;102883.47;;;11.46;54.51
69535;BME280;56754;51.568;5.048;2023-01-28T00:38:36;102900.06;;;11.43;54.58
69535;BME280;56754;51.568;5.048;2023-01-28T00:41:12;102884.53;;;11.40;54.92
69535;BME280;56754;51.568;5.048;2023-01-28T00:43:39;102895.78;;;11.37;54.76
69535;BME280;56754;51.568;5.048;2023-01-28T00:46:05;102892.81;;;11.33;54.75
69535;BME280;56754;51.568;5.048;2023-01-28T00:48:35;102885.31;;;11.30;54.98
69535;BME280;56754;51.568;5.048;2023-01-28T00:51:01;102887.69;;;11.27;54.86
69535;BME280;56754;51.568;5.048;2023-01-28T00:53:27;102890.91;;;11.24;54.64
69535;BME280;56754;51.568;5.048;2023-01-28T00:55:52;102890.63;;;11.20;55.03
69535;BME280;56754;51.568;5.048;2023-01-28T00:58:18;102892.47;;;11.14;55.31
69535;BME280;56754;51.568;5.048;2023-01-28T01:00:44;102900.00;;;11.12;55.22
69535;BME280;56754;51.568;5.048;2023-01-28T01:03:09;102900.50;;;11.09;55.34
69535;BME280;56754;51.568;5.048;2023-01-28T01:05:35;102895.69;;;11.06;55.46
69535;BME280;56754;51.568;5.048;2023-01-28T01:08:00;102895.13;;;11.04;55.30
69535;BME280;56754;51.568;5.048;2023-01-28T01:10:26;102896.69;;;11.00;55.61
69535;BME280;56754;51.568;5.048;2023-01-28T01:12:51;102894.53;;;10.97;55.59
69535;BME280;56754;51.568;5.048;2023-01-28T01:15:17;102890.78;;;10.93;55.73
69535;BME280;56754;51.568;5.048;2023-01-28T01:17:48;102894.78;;;10.90;55.64
69535;BME280;56754;51.568;5.048;2023-01-28T01:22:40;102887.00;;;10.84;56.12
69535;BME280;56754;51.568;5.048;2023-01-28T01:25:06;102883.78;;;10.82;56.40
69535;BME280;56754;51.568;5.048;2023-01-28T01:27:31;102890.44;;;10.79;56.29
69535;BME280;56754;51.568;5.048;2023-01-28T01:29:57;102890.16;;;10.76;56.66
69535;BME280;56754;51.568;5.048;2023-01-28T01:32:22;102882.41;;;10.74;56.75
69535;BME280;56754;51.568;5.048;2023-01-28T01:34:47;102877.31;;;10.73;56.71
69535;BME280;56754;51.568;5.048;2023-01-28T01:37:13;102878.38;;;10.72;56.79
69535;BME280;56754;51.568;5.048;2023-01-28T01:39:38;102884.25;;;10.68;56.77
69535;BME280;56754;51.568;5.048;2023-01-28T01:42:03;102891.16;;;10.64;56.66
69535;BME280;56754;51.568;5.048;2023-01-28T01:44:52;102887.41;;;10.60;56.97
69535;BME280;56754;51.568;5.048;2023-01-28T01:47:23;102889.53;;;10.58;57.23
69535;BME280;56754;51.568;5.048;2023-01-28T01:49:49;102892.47;;;10.57;57.37
69535;BME280;56754;51.568;5.048;2023-01-28T01:52:19;102884.97;;;10.54;56.97
69535;BME280;56754;51.568;5.048;2023-01-28T01:54:51;102886.28;;;10.51;57.06
69535;BME280;56754;51.568;5.048;2023-01-28T01:57:22;102884.13;;;10.48;57.17
69535;BME280;56754;51.568;5.048;2023-01-28T01:59:49;102887.88;;;10.47;57.52
69535;BME280;56754;51.568;5.048;2023-01-28T02:02:15;102884.13;;;10.48;56.53
69535;BME280;56754;51.568;5.048;2023-01-28T02:04:42;102894.69;;;10.65;56.31
69535;BME280;56754;51.568;5.048;2023-01-28T02:07:09;102892.66;;;10.92;56.16
69535;BME280;56754;51.568;5.048;2023-01-28T02:09:35;102901.09;;;11.22;55.28
69535;BME280;56754;51.568;5.048;2023-01-28T02:12:15;102900.63;;;11.45;54.60
69535;BME280;56754;51.568;5.048;2023-01-28T02:14:49;102895.03;;;11.67;53.97
69535;BME280;56754;51.568;5.048;2023-01-28T02:17:17;102899.91;;;11.86;53.44
69535;BME280;56754;51.568;5.048;2023-01-28T02:20:04;102900.72;;;12.06;52.90
69535;BME280;56754;51.568;5.048;2023-01-28T02:31:23;102896.69;;;12.29;51.43
69535;BME280;56754;51.568;5.048;2023-01-28T02:34:17;102889.72;;;12.28;51.23
69535;BME280;56754;51.568;5.048;2023-01-28T02:36:52;102884.09;;;12.25;51.06
69535;BME280;56754;51.568;5.048;2023-01-28T02:39:26;102879.00;;;12.23;50.71
69535;BME280;56754;51.568;5.048;2023-01-28T02:42:05;102888.13;;;12.17;50.25
69535;BME280;56754;51.568;5.048;2023-01-28T02:44:31;102884.63;;;12.12;50.31
69535;BME280;56754;51.568;5.048;2023-01-28T02:46:57;102888.94;;;12.07;49.98
69535;BME280;56754;51.568;5.048;2023-01-28T02:49:24;102893.75;;;12.00;50.05
69535;BME280;56754;51.568;5.048;2023-01-28T02:52:14;102907.16;;;11.95;50.95
69535;BME280;56754;51.568;5.048;2023-01-28T02:55:05;102903.41;;;11.86;51.38
69535;BME280;56754;51.568;5.048;2023-01-28T03:05:58;102899.56;;;11.56;52.69
69535;BME280;56754;51.568;5.048;2023-01-28T03:08:24;102904.66;;;11.48;52.70
69535;BME280;56754;51.568;5.048;2023-01-28T03:10:50;102907.56;;;11.41;52.97
69535;BME280;56754;51.568;5.048;2023-01-28T03:13:17;102911.84;;;11.37;52.92
69535;BME280;56754;51.568;5.048;2023-01-28T03:15:47;102910.00;;;11.48;53.54
69535;BME280;56754;51.568;5.048;2023-01-28T03:18:21;102915.13;;;11.70;53.12
69535;BME280;56754;51.568;5.048;2023-01-28T03:23:33;102908.22;;;12.10;52.22
69535;BME280;56754;51.568;5.048;2023-01-28T03:26:00;102905.00;;;12.28;51.94
69535;BME280;56754;51.568;5.048;2023-01-28T03:28:28;102906.59;;;12.44;51.25
69535;BME280;56754;51.568;5.048;2023-01-28T03:31:08;102899.34;;;12.50;50.97
69535;BME280;56754;51.568;5.048;2023-01-28T03:33:35;102911.66;;;12.51;50.76
69535;BME280;56754;51.568;5.048;2023-01-28T03:36:01;102906.59;;;12.49;50.77
69535;BME280;56754;51.568;5.048;2023-01-28T03:38:26;102911.94;;;12.49;50.86
69535;BME280;56754;51.568;5.048;2023-01-28T03:40:55;102903.38;;;12.47;50.50
69535;BME280;56754;51.568;5.048;2023-01-28T03:43:20;102908.22;;;12.45;50.59
69535;BME280;56754;51.568;5.048;2023-01-28T03:45:46;102906.06;;;12.42;50.45
69535;BME280;56754;51.568;5.048;2023-01-28T03:48:11;102910.34;;;12.38;50.32
69535;BME280;56754;51.568;5.048;2023-01-28T03:50:37;102908.50;;;12.34;50.16
69535;BME280;56754;51.568;5.048;2023-01-28T03:53:02;102916.53;;;12.28;50.03
69535;BME280;56754;51.568;5.048;2023-01-28T03:55:27;102916.53;;;12.23;50.19
69535;BME280;56754;51.568;5.048;2023-01-28T03:57:52;102922.16;;;12.17;50.27
69535;BME280;56754;51.568;5.048;2023-01-28T04:00:18;102920.56;;;12.21;50.92
69535;BME280;56754;51.568;5.048;2023-01-28T04:02:43;102920.81;;;12.29;51.13
69535;BME280;56754;51.568;5.048;2023-01-28T04:05:09;102923.22;;;12.41;50.94
69535;BME280;56754;51.568;5.048;2023-01-28T04:07:34;102927.25;;;12.54;50.39
69535;BME280;56754;51.568;5.048;2023-01-28T04:09:59;102932.31;;;12.61;50.41
69535;BME280;56754;51.568;5.048;2023-01-28T04:12:24;102927.47;;;12.63;50.09
69535;BME280;56754;51.568;5.048;2023-01-28T04:14:50;102932.03;;;12.62;49.91
69535;BME280;56754;51.568;5.048;2023-01-28T04:17:15;102931.53;;;12.60;49.76
69535;BME280;56754;51.568;5.048;2023-01-28T04:19:40;102933.94;;;12.57;50.02
69535;BME280;56754;51.568;5.048;2023-01-28T04:22:07;102934.47;;;12.53;49.84
69535;BME280;56754;51.568;5.048;2023-01-28T04:24:34;102930.97;;;12.48;49.72
69535;BME280;56754;51.568;5.048;2023-01-28T04:26:59;102931.00;;;12.43;49.80
69535;BME280;56754;51.568;5.048;2023-01-28T04:29:25;102932.59;;;12.39;49.60
69535;BME280;56754;51.568;5.048;2023-01-28T04:31:50;102932.09;;;12.37;50.45
69535;BME280;56754;51.568;5.048;2023-01-28T04:34:15;102933.41;;;12.44;50.72
69535;BME280;56754;51.568;5.048;2023-01-28T04:36:40;102924.56;;;12.54;50.38
69535;BME280;56754;51.568;5.048;2023-01-28T04:39:06;102922.38;;;12.66;49.92
69535;BME280;56754;51.568;5.048;2023-01-28T04:41:31;102923.19;;;12.72;50.01
69535;BME280;56754;51.568;5.048;2023-01-28T04:43:57;102919.66;;;12.71;49.56
69535;BME280;56754;51.568;5.048;2023-01-28T04:46:22;102928.00;;;12.70;49.55
69535;BME280;56754;51.568;5.048;2023-01-28T04:48:47;102930.16;;;12.68;49.55
69535;BME280;56754;51.568;5.048;2023-01-28T04:51:12;102919.97;;;12.65;49.45
69535;BME280;56754;51.568;5.048;2023-01-28T04:53:38;102930.44;;;12.61;49.69
69535;BME280;56754;51.568;5.048;2023-01-28T04:56:03;102930.19;;;12.58;49.68
69535;BME280;56754;51.568;5.048;2023-01-28T04:58:28;102930.19;;;12.52;49.50
69535;BME280;56754;51.568;5.048;2023-01-28T05:00:55;102934.22;;;12.50;49.91
69535;BME280;56754;51.568;5.048;2023-01-28T05:03:21;102939.56;;;12.55;50.07
69535;BME280;56754;51.568;5.048;2023-01-28T05:05:46;102939.84;;;12.64;50.05
69535;BME280;56754;51.568;5.048;2023-01-28T05:08:11;102945.97;;;12.74;49.47
69535;BME280;56754;51.568;5.048;2023-01-28T05:10:37;102936.03;;;12.80;49.83
69535;BME280;56754;51.568;5.048;2023-01-28T05:13:02;102938.72;;;12.80;49.41
69535;BME280;56754;51.568;5.048;2023-01-28T05:15:27;102939.25;;;12.77;49.49
69535;BME280;56754;51.568;5.048;2023-01-28T05:17:53;102942.22;;;12.75;49.42
69535;BME280;56754;51.568;5.048;2023-01-28T05:20:19;102940.09;;;12.72;49.47
69535;BME280;56754;51.568;5.048;2023-01-28T05:22:44;102929.91;;;12.69;49.48
69535;BME280;56754;51.568;5.048;2023-01-28T05:25:09;102937.66;;;12.66;49.68
69535;BME280;56754;51.568;5.048;2023-01-28T05:27:35;102927.75;;;12.61;49.45
69535;BME280;56754;51.568;5.048;2023-01-28T05:30:00;102929.38;;;12.57;49.55
69535;BME280;56754;51.568;5.048;2023-01-28T05:32:25;102920.50;;;12.62;49.93
69535;BME280;56754;51.568;5.048;2023-01-28T05:34:50;102932.56;;;12.69;49.72
69535;BME280;56754;51.568;5.048;2023-01-28T05:37:16;102921.00;;;12.79;49.34
69535;BME280;56754;51.568;5.048;2023-01-28T05:39:41;102926.88;;;12.86;49.21
69535;BME280;56754;51.568;5.048;2023-01-28T05:42:07;102923.13;;;12.87;49.74
69535;BME280;56754;51.568;5.048;2023-01-28T05:44:32;102933.63;;;12.84;49.29
69535;BME280;56754;51.568;5.048;2023-01-28T05:46:58;102932.78;;;12.83;49.01
69535;BME280;56754;51.568;5.048;2023-01-28T05:49:23;102928.25;;;12.79;48.90
69535;BME280;56754;51.568;5.048;2023-01-28T05:51:48;102941.13;;;12.77;48.79
69535;BME280;56754;51.568;5.048;2023-01-28T05:54:14;102941.97;;;12.72;48.92
69535;BME280;56754;51.568;5.048;2023-01-28T05:56:39;102949.72;;;12.68;49.09
69535;BME280;56754;51.568;5.048;2023-01-28T05:59:05;102945.44;;;12.67;49.50
69535;BME280;56754;51.568;5.048;2023-01-28T06:01:30;102943.56;;;12.73;49.38
69535;BME280;56754;51.568;5.048;2023-01-28T06:03:55;102942.19;;;12.81;49.04
69535;BME280;56754;51.568;5.048;2023-01-28T06:06:20;102938.69;;;12.90;48.84
69535;BME280;56754;51.568;5.048;2023-01-28T06:08:46;102943.78;;;12.92;48.67
69535;BME280;56754;51.568;5.048;2023-01-28T06:11:11;102944.06;;;12.90;48.95
69535;BME280;56754;51.568;5.048;2023-01-28T06:13:37;102938.16;;;12.88;49.06
69535;BME280;56754;51.568;5.048;2023-01-28T06:16:02;102932.78;;;12.83;48.81
69535;BME280;56754;51.568;5.048;2023-01-28T06:18:28;102933.34;;;12.80;48.61
69535;BME280;56754;51.568;5.048;2023-01-28T06:20:53;102926.91;;;12.76;48.34
69535;BME280;56754;51.568;5.048;2023-01-28T06:23:19;102940.88;;;12.73;48.61
69535;BME280;56754;51.568;5.048;2023-01-28T06:25:44;102933.38;;;12.75;48.97
69535;BME280;56754;51.568;5.048;2023-01-28T06:28:09;102934.97;;;12.81;48.75
69535;BME280;56754;51.568;5.048;2023-01-28T06:30:35;102942.44;;;12.89;48.50
69535;BME280;56754;51.568;5.048;2023-01-28T06:33:00;102941.38;;;12.95;48.38
69535;BME280;56754;51.568;5.048;2023-01-28T06:35:25;102937.59;;;12.96;48.48
69535;BME280;56754;51.568;5.048;2023-01-28T06:37:51;102932.78;;;12.93;48.79
69535;BME280;56754;51.568;5.048;2023-01-28T06:40:17;102943.25;;;12.90;48.62
69535;BME280;56754;51.568;5.048;2023-01-28T06:42:42;102953.47;;;12.88;48.34
69535;BME280;56754;51.568;5.048;2023-01-28T06:45:08;102937.91;;;12.85;48.49
69535;BME280;56754;51.568;5.048;2023-01-28T06:47:33;102940.34;;;12.81;48.37
69535;BME280;56754;51.568;5.048;2023-01-28T06:49:59;102949.44;;;12.80;48.60
69535;BME280;56754;51.568;5.048;2023-01-28T06:52:24;102948.09;;;12.83;48.90
69535;BME280;56754;51.568;5.048;2023-01-28T06:54:49;102946.75;;;12.90;48.27
69535;BME280;56754;51.568;5.048;2023-01-28T06:57:15;102951.56;;;12.98;48.35
69535;BME280;56754;51.568;5.048;2023-01-28T06:59:40;102950.19;;;13.01;48.09
69535;BME280;56754;51.568;5.048;2023-01-28T07:02:05;102951.81;;;13.02;48.61
69535;BME280;56754;51.568;5.048;2023-01-28T07:04:31;102942.66;;;13.03;48.60
69535;BME280;56754;51.568;5.048;2023-01-28T07:06:56;102948.31;;;13.02;48.68
69535;BME280;56754;51.568;5.048;2023-01-28T07:09:21;102956.94;;;12.98;48.74
69535;BME280;56754;51.568;5.048;2023-01-28T07:11:46;102958.81;;;12.93;48.21
69535;BME280;56754;51.568;5.048;2023-01-28T07:14:12;102974.63;;;12.89;48.54
69535;BME280;56754;51.568;5.048;2023-01-28T07:16:37;102970.09;;;12.85;48.43
69535;BME280;56754;51.568;5.048;2023-01-28T07:19:02;102965.53;;;12.80;48.45
69535;BME280;56754;51.568;5.048;2023-01-28T07:21:28;102970.66;;;12.82;48.69
69535;BME280;56754;51.568;5.048;2023-01-28T07:23:53;102972.00;;;12.84;48.57
69535;BME280;56754;51.568;5.048;2023-01-28T07:26:18;102971.97;;;12.89;48.12
69535;BME280;56754;51.568;5.048;2023-01-28T07:28:43;102972.75;;;12.95;48.01
69535;BME280;56754;51.568;5.048;2023-01-28T07:31:09;102984.28;;;13.01;47.74
69535;BME280;56754;51.568;5.048;2023-01-28T07:33:34;102981.59;;;13.01;48.09
69535;BME280;56754;51.568;5.048;2023-01-28T07:35:59;102984.03;;;13.02;47.97
69535;BME280;56754;51.568;5.048;2023-01-28T07:38:24;102990.19;;;13.03;47.91
69535;BME280;56754;51.568;5.048;2023-01-28T07:40:50;103001.47;;;13.00;48.19
69535;BME280;56754;51.568;5.048;2023-01-28T07:43:15;102997.44;;;12.97;47.93
69535;BME280;56754;51.568;5.048;2023-01-28T07:45:40;102993.72;;;12.93;47.89
69535;BME280;56754;51.568;5.048;2023-01-28T07:48:07;102993.19;;;12.91;47.85
69535;BME280;56754;51.568;5.048;2023-01-28T07:50:35;102991.84;;;12.93;47.51
69535;BME280;56754;51.568;5.048;2023-01-28T07:53:09;102996.38;;;12.98;47.17
69535;BME280;56754;51.568;5.048;2023-01-28T07:55:35;102986.16;;;13.05;47.26
69535;BME280;56754;51.568;5.048;2023-01-28T07:58:02;102995.53;;;13.13;47.25
69535;BME280;56754;51.568;5.048;2023-01-28T08:00:30;102994.97;;;13.21;47.13
69535;BME280;56754;51.568;5.048;2023-01-28T08:02:57;102999.78;;;13.24;47.31
69535;BME280;56754;51.568;5.048;2023-01-28T08:05:24;102996.84;;;13.20;47.49
69535;BME280;56754;51.568;5.048;2023-01-28T08:07:50;102997.41;;;13.17;47.22
69535;BME280;56754;51.568;5.048;2023-01-28T08:10:16;103009.22;;;13.11;47.60
69535;BME280;56754;51.568;5.048;2023-01-28T08:12:56;103007.66;;;13.05;47.66
69535;BME280;56754;51.568;5.048;2023-01-28T08:15:22;103014.63;;;13.01;47.80
69535;BME280;56754;51.568;5.048;2023-01-28T08:17:47;103020.81;;;13.02;47.12
69535;BME280;56754;51.568;5.048;2023-01-28T08:20:12;103018.09;;;13.07;47.33
69535;BME280;56754;51.568;5.048;2023-01-28T08:22:38;103025.59;;;13.10;48.36
69535;BME280;56754;51.568;5.048;2023-01-28T08:25:04;103039.56;;;13.07;48.36
69535;BME280;56754;51.568;5.048;2023-01-28T08:27:29;103034.50;;;13.00;45.98
69535;BME280;56754;51.568;5.048;2023-01-28T08:29:54;103026.47;;;12.90;45.46
69535;BME280;56754;51.568;5.048;2023-01-28T08:32:20;103029.41;;;12.83;46.31
69535;BME280;56754;51.568;5.048;2023-01-28T08:34:45;103031.56;;;12.81;47.26
69535;BME280;56754;51.568;5.048;2023-01-28T08:37:10;103038.53;;;12.82;47.48
69535;BME280;56754;51.568;5.048;2023-01-28T08:39:36;103035.31;;;12.80;47.37
69535;BME280;56754;51.568;5.048;2023-01-28T08:42:01;103045.78;;;12.77;47.07
69535;BME280;56754;51.568;5.048;2023-01-28T08:44:26;103052.50;;;12.74;46.81
69535;BME280;56754;51.568;5.048;2023-01-28T08:46:52;103044.44;;;12.74;46.67
69535;BME280;56754;51.568;5.048;2023-01-28T08:49:17;103041.50;;;12.75;46.22
69535;BME280;56754;51.568;5.048;2023-01-28T08:51:42;103050.91;;;12.78;46.79
69535;BME280;56754;51.568;5.048;2023-01-28T08:54:07;103049.28;;;12.82;47.45
69535;BME280;56754;51.568;5.048;2023-01-28T08:56:33;103054.66;;;12.87;47.73
69535;BME280;56754;51.568;5.048;2023-01-28T08:58:58;103061.63;;;12.93;48.40
69535;BME280;56754;51.568;5.048;2023-01-28T09:01:23;103065.91;;;12.94;48.80
69535;BME280;56754;51.568;5.048;2023-01-28T09:03:49;103062.16;;;12.90;48.75
69535;BME280;56754;51.568;5.048;2023-01-28T09:06:14;103062.69;;;12.87;49.12
69535;BME280;56754;51.568;5.048;2023-01-28T09:08:39;103056.53;;;12.82;49.56
69535;BME280;56754;51.568;5.048;2023-01-28T09:11:05;103059.50;;;12.75;48.88
69535;BME280;56754;51.568;5.048;2023-01-28T09:13:30;103054.66;;;12.72;48.59
69535;BME280;56754;51.568;5.048;2023-01-28T09:15:55;103060.28;;;12.70;48.22
69535;BME280;56754;51.568;5.048;2023-01-28T09:18:21;103048.47;;;12.71;48.55
69535;BME280;56754;51.568;5.048;2023-01-28T09:20:46;103062.19;;;12.75;48.89
69535;BME280;56754;51.568;5.048;2023-01-28T09:23:12;103079.59;;;12.78;48.72
69535;BME280;56754;51.568;5.048;2023-01-28T09:25:37;103078.78;;;12.82;49.39
69535;BME280;56754;51.568;5.048;2023-01-28T09:28:03;103089.00;;;12.85;49.33
69535;BME280;56754;51.568;5.048;2023-01-28T09:30:29;103094.34;;;12.85;49.07
69535;BME280;56754;51.568;5.048;2023-01-28T09:32:55;103094.09;;;12.82;49.13
69535;BME280;56754;51.568;5.048;2023-01-28T09:35:21;103098.13;;;12.79;48.87
69535;BME280;56754;51.568;5.048;2023-01-28T09:37:47;103097.84;;;12.75;48.56
69535;BME280;56754;51.568;5.048;2023-01-28T09:40:18;103096.50;;;12.73;49.26
69535;BME280;56754;51.568;5.048;2023-01-28T09:45:51;103108.03;;;12.73;48.55
69535;BME280;56754;51.568;5.048;2023-01-28T09:48:20;103114.75;;;12.76;48.53
69535;BME280;56754;51.568;5.048;2023-01-28T09:50:49;103111.00;;;12.77;48.68
69535;BME280;56754;51.568;5.048;2023-01-28T09:58:24;103111.00;;;12.82;49.12
69535;BME280;56754;51.568;5.048;2023-01-28T10:03:57;103123.88;;;12.85;48.69
69535;BME280;56754;51.568;5.048;2023-01-28T10:06:47;103131.94;;;12.90;48.74
69535;BME280;56754;51.568;5.048;2023-01-28T10:17:26;103130.31;;;13.20;47.90
69535;BME280;56754;51.568;5.048;2023-01-28T10:19:57;103130.34;;;13.25;47.37
69535;BME280;56754;51.568;5.048;2023-01-28T10:22:32;103116.38;;;13.28;46.47
69535;BME280;56754;51.568;5.048;2023-01-28T10:25:02;103131.41;;;13.34;46.75
69535;BME280;56754;51.568;5.048;2023-01-28T10:27:31;103134.34;;;13.43;46.65
69535;BME280;56754;51.568;5.048;2023-01-28T10:29:59;103127.06;;;13.54;46.72
69535;BME280;56754;51.568;5.048;2023-01-28T10:32:37;103125.94;;;13.65;47.41
69535;BME280;56754;51.568;5.048;2023-01-28T10:35:07;103118.38;;;13.72;47.23
69535;BME280;56754;51.568;5.048;2023-01-28T10:37:34;103123.75;;;13.77;47.20
69535;BME280;56754;51.568;5.048;2023-01-28T10:40:02;103127.53;;;13.81;47.32
69535;BME280;56754;51.568;5.048;2023-01-28T10:42:30;103124.56;;;13.78;47.00
69535;BME280;56754;51.568;5.048;2023-01-28T10:44:58;103121.34;;;13.76;46.83
69535;BME280;56754;51.568;5.048;2023-01-28T10:47:40;103101.72;;;13.75;47.35
69535;BME280;56754;51.568;5.048;2023-01-28T10:50:14;103085.06;;;13.78;47.13
69535;BME280;56754;51.568;5.048;2023-01-28T10:52:55;103086.38;;;13.81;47.10
69535;BME280;56754;51.568;5.048;2023-01-28T10:55:21;103082.34;;;13.83;46.90
69535;BME280;56754;51.568;5.048;2023-01-28T10:57:48;103090.41;;;13.83;47.28
69535;BME280;56754;51.568;5.048;2023-01-28T11:02:47;103077.25;;;13.77;47.46
69535;BME280;56754;51.568;5.048;2023-01-28T11:05:18;103075.94;;;13.74;46.94
69535;BME280;56754;51.568;5.048;2023-01-28T11:07:44;103083.44;;;13.72;47.21
69535;BME280;56754;51.568;5.048;2023-01-28T11:12:59;103062.72;;;13.78;47.18
69535;BME280;56754;51.568;5.048;2023-01-28T11:15:25;103073.47;;;13.83;47.45
69535;BME280;56754;51.568;5.048;2023-01-28T11:17:55;103077.75;;;13.84;47.52
69535;BME280;56754;51.568;5.048;2023-01-28T11:20:23;103067.84;;;13.79;47.60
69535;BME280;56754;51.568;5.048;2023-01-28T11:22:51;103065.72;;;13.76;47.81
69535;BME280;56754;51.568;5.048;2023-01-28T11:27:50;103052.28;;;13.71;48.23
69535;BME280;56754;51.568;5.048;2023-01-28T11:30:25;103054.66;;;13.78;48.29
69535;BME280;56754;51.568;5.048;2023-01-28T11:32:55;103067.28;;;13.82;48.34
69535;BME280;56754;51.568;5.048;2023-01-28T11:35:25;103053.31;;;13.85;48.09
69535;BME280;56754;51.568;5.048;2023-01-28T11:37:51;103057.56;;;13.92;48.13
69535;BME280;56754;51.568;5.048;2023-01-28T11:40:18;103045.16;;;13.96;48.46
69535;BME280;56754;51.568;5.048;2023-01-28T11:42:43;103030.66;;;13.97;47.85
69535;BME280;56754;51.568;5.048;2023-01-28T11:45:19;103026.66;;;13.94;47.55
69535;BME280;56754;51.568;5.048;2023-01-28T11:53:03;102981.03;;;13.79;47.87
69535;BME280;56754;51.568;5.048;2023-01-28T11:55:58;102982.16;;;13.73;47.57
69535;BME280;56754;51.568;5.048;2023-01-28T12:01:36;102983.22;;;13.72;48.78
69535;BME280;56754;51.568;5.048;2023-01-28T12:04:21;102973.00;;;13.74;48.56
69535;BME280;56754;51.568;5.048;2023-01-28T12:07:05;102965.19;;;13.77;48.11
69535;BME280;56754;51.568;5.048;2023-01-28T12:09:56;102961.44;;;13.78;48.73
69535;BME280;56754;51.568;5.048;2023-01-28T12:15:16;102955.78;;;13.75;48.50
69535;BME280;56754;51.568;5.048;2023-01-28T12:18:06;102957.19;;;13.67;48.21
69535;BME280;56754;51.568;5.048;2023-01-28T12:20:53;102963.41;;;13.57;48.36
69535;BME280;56754;51.568;5.048;2023-01-28T12:23:38;102986.28;;;13.50;49.16
69535;BME280;56754;51.568;5.048;2023-01-28T12:26:14;102971.03;;;13.40;49.09
69535;BME280;56754;51.568;5.048;2023-01-28T12:39:36;102996.09;;;13.05;49.95
69535;BME280;56754;51.568;5.048;2023-01-28T12:42:26;103000.38;;;13.01;50.69
69535;BME280;56754;51.568;5.048;2023-01-28T12:45:01;103004.72;;;12.96;49.81
69535;BME280;56754;51.568;5.048;2023-01-28T12:47:34;103009.81;;;12.93;49.95
69535;BME280;56754;51.568;5.048;2023-01-28T12:52:46;103016.28;;;12.87;50.03
69535;BME280;56754;51.568;5.048;2023-01-28T12:55:16;103006.09;;;12.84;49.62
69535;BME280;56754;51.568;5.048;2023-01-28T12:57:43;103013.59;;;12.82;49.35
69535;BME280;56754;51.568;5.048;2023-01-28T13:02:55;103020.03;;;12.75;49.16
69535;BME280;56754;51.568;5.048;2023-01-28T13:05:31;103016.81;;;12.73;49.10
69535;BME280;56754;51.568;5.048;2023-01-28T13:08:03;103014.66;;;12.70;49.41
69535;BME280;56754;51.568;5.048;2023-01-28T13:10:41;103007.97;;;12.68;49.08
69535;BME280;56754;51.568;5.048;2023-01-28T13:13:14;103015.47;;;12.66;48.72
69535;BME280;56754;51.568;5.048;2023-01-28T13:15:42;102998.31;;;12.62;48.80
69535;BME280;56754;51.568;5.048;2023-01-28T13:21:01;102999.13;;;12.57;49.54
69535;BME280;56754;51.568;5.048;2023-01-28T13:25:55;102984.06;;;12.71;49.47
69535;BME280;56754;51.568;5.048;2023-01-28T13:28:31;102978.69;;;12.82;49.52
69535;BME280;56754;51.568;5.048;2023-01-28T13:31:08;102968.22;;;12.90;49.17
69535;BME280;56754;51.568;5.048;2023-01-28T13:33:37;102970.84;;;13.01;49.27
69535;BME280;56754;51.568;5.048;2023-01-28T13:36:28;102959.31;;;13.10;48.72
69535;BME280;56754;51.568;5.048;2023-01-28T13:39:17;102956.59;;;13.15;48.39
69535;BME280;56754;51.568;5.048;2023-01-28T13:44:39;102939.38;;;13.21;48.27
69535;BME280;56754;51.568;5.048;2023-01-28T13:49:37;102928.91;;;13.20;47.44
69535;BME280;56754;51.568;5.048;2023-01-28T13:52:12;102920.88;;;13.15;46.88
69535;BME280;56754;51.568;5.048;2023-01-28T13:55:04;102919.28;;;13.09;47.11
69535;BME280;56754;51.568;5.048;2023-01-28T14:14:14;102940.34;;;12.81;47.89
69535;BME280;56754;51.568;5.048;2023-01-28T14:16:50;102955.91;;;12.79;48.18
69535;BME280;56754;51.568;5.048;2023-01-28T14:19:22;102957.78;;;12.79;48.05
69535;BME280;56754;51.568;5.048;2023-01-28T14:21:50;102970.41;;;12.78;48.19
69535;BME280;56754;51.568;5.048;2023-01-28T14:24:17;102962.88;;;12.75;48.22
69535;BME280;56754;51.568;5.048;2023-01-28T14:29:16;102959.91;;;12.71;48.37
69535;BME280;56754;51.568;5.048;2023-01-28T14:31:43;102967.47;;;12.69;48.30
69535;BME280;56754;51.568;5.048;2023-01-28T14:34:33;102963.44;;;12.67;48.09
69535;BME280;56754;51.568;5.048;2023-01-28T14:37:03;102952.69;;;12.67;48.23
69535;BME280;56754;51.568;5.048;2023-01-28T14:39:33;102947.59;;;12.65;48.14
69535;BME280;56754;51.568;5.048;2023-01-28T14:42:34;102961.00;;;12.65;48.33
69535;BME280;56754;51.568;5.048;2023-01-28T14:45:17;102967.16;;;12.66;48.09